Time;durP1;ratioP1;P1;durP2;ratioP2;P2;SDS_P1;SDS_P2;PMS_P1;PMS_P2;Temp;Humidity;BMP_temperature;BMP_pressure;BME280_temperature;BME280_humidity;BME280_pressure;Samples;Min_cycle;Max_cycle;Signal;HPM_P1;HPM_P2
2023/04/22 00:00:10;;;;;;;30.83;17.67;;;;;;;13.56;100.00;100381.22;4957153;28;20042;-85
2023/04/22 00:02:37;;;;;;;30.85;17.52;;;;;;;13.45;100.00;100377.19;4958122;28;20523;-90
2023/04/22 00:05:06;;;;;;;29.15;18.05;;;;;;;13.37;100.00;100382.59;4957768;28;20487;-88
2023/04/22 00:07:32;;;;;;;27.95;17.92;;;;;;;13.14;100.00;100383.69;4957654;28;20542;-88
2023/04/22 00:09:57;;;;;;;26.70;17.00;;;;;;;13.36;100.00;100380.94;4956453;29;20035;-86
2023/04/22 00:12:24;;;;;;;29.00;18.92;;;;;;;13.28;100.00;100382.88;4956506;29;20050;-88
2023/04/22 00:14:50;;;;;;;27.40;17.23;;;;;;;13.16;100.00;100373.69;4957188;28;20043;-88
2023/04/22 00:17:15;;;;;;;34.40;18.17;;;;;;;13.34;100.00;100371.50;4956727;28;20552;-87
2023/04/22 00:19:41;;;;;;;28.92;18.00;;;;;;;13.13;100.00;100369.56;4956282;28;20039;-85
2023/04/22 00:22:07;;;;;;;31.45;18.83;;;;;;;13.28;100.00;100369.56;4955662;29;20093;-88
2023/04/22 00:24:32;;;;;;;28.63;17.08;;;;;;;13.43;100.00;100373.06;4955819;29;20039;-88
2023/04/22 00:26:58;;;;;;;32.60;19.90;;;;;;;13.10;100.00;100379.72;4957184;28;20035;-84
2023/04/22 00:29:24;;;;;;;33.42;19.40;;;;;;;13.21;100.00;100376.63;4955712;28;20110;-88
2023/04/22 00:31:50;;;;;;;32.95;19.40;;;;;;;13.15;100.00;100380.03;4956438;29;20037;-90
2023/04/22 00:34:19;;;;;;;30.63;19.75;;;;;;;13.03;100.00;100384.09;4974672;28;20074;-87
2023/04/22 00:36:45;;;;;;;30.98;18.73;;;;;;;13.02;100.00;100380.63;4957096;28;20434;-89
2023/04/22 00:39:11;;;;;;;30.92;19.63;;;;;;;12.87;100.00;100375.28;4969622;28;20037;-89
2023/04/22 00:41:38;;;;;;;32.13;21.30;;;;;;;12.79;100.00;100377.19;4979902;28;20034;-90
2023/04/22 00:44:12;;;;;;;34.33;19.98;;;;;;;12.82;100.00;100372.34;4984232;28;20035;-89
2023/04/22 00:46:38;;;;;;;36.33;19.38;;;;;;;12.80;100.00;100369.00;4984755;28;20034;-90
2023/04/22 00:49:07;;;;;;;31.85;19.50;;;;;;;12.84;100.00;100370.31;4984546;28;20027;-87
2023/04/22 00:51:32;;;;;;;31.80;19.17;;;;;;;12.98;100.00;100363.38;4978497;28;20533;-89
2023/04/22 00:54:00;;;;;;;34.33;19.92;;;;;;;12.90;100.00;100358.94;4980944;28;20039;-87
2023/04/22 00:56:27;;;;;;;34.67;20.30;;;;;;;12.87;100.00;100363.78;4978370;28;20129;-89
2023/04/22 00:58:54;;;;;;;33.05;20.20;;;;;;;12.86;100.00;100368.28;4975641;28;20049;-90
2023/04/22 01:01:21;;;;;;;33.17;20.85;;;;;;;12.87;100.00;100355.81;4979001;28;20042;-91
2023/04/22 01:03:48;;;;;;;32.92;20.02;;;;;;;12.96;100.00;100360.88;4975794;28;20031;-86
2023/04/22 01:06:18;;;;;;;34.65;20.27;;;;;;;12.96;100.00;100363.53;4974214;28;20492;-87
2023/04/22 01:08:44;;;;;;;30.17;18.52;;;;;;;13.06;100.00;100367.78;4975890;28;20588;-90
2023/04/22 01:11:11;;;;;;;33.47;20.17;;;;;;;13.00;100.00;100368.50;4980338;28;20030;-86
2023/04/22 01:13:39;;;;;;;34.50;20.48;;;;;;;13.01;100.00;100365.66;4977167;28;20102;-90
2023/04/22 01:16:07;;;;;;;33.63;18.70;;;;;;;13.20;100.00;100369.66;4943907;28;20035;-91
2023/04/22 01:18:35;;;;;;;35.30;19.98;;;;;;;13.22;100.00;100372.97;4974872;28;20115;-89
2023/04/22 01:21:01;;;;;;;36.17;19.08;;;;;;;13.23;100.00;100366.63;4976228;28;20031;-92
2023/04/22 01:23:27;;;;;;;36.47;19.88;;;;;;;13.00;100.00;100355.19;4976005;28;20031;-89
2023/04/22 01:25:53;;;;;;;33.38;20.02;;;;;;;12.97;100.00;100356.38;4974536;28;20059;-88
2023/04/22 01:28:22;;;;;;;32.42;18.77;;;;;;;13.17;100.00;100367.34;4958522;28;20490;-87
2023/04/22 01:30:48;;;;;;;33.92;19.65;;;;;;;13.02;100.00;100366.50;4974308;28;20045;-91
2023/04/22 01:33:15;;;;;;;34.83;19.55;;;;;;;12.88;100.00;100366.28;4974685;28;20038;-90
2023/04/22 01:35:41;;;;;;;34.42;20.30;;;;;;;12.76;100.00;100367.72;4977811;28;20033;-88
2023/04/22 01:38:08;;;;;;;32.55;20.02;;;;;;;12.75;100.00;100368.75;4961738;28;20121;-89
2023/04/22 01:40:34;;;;;;;29.23;19.20;;;;;;;12.76;100.00;100367.72;4992476;28;20042;-86
2023/04/22 01:43:01;;;;;;;39.53;20.58;;;;;;;12.81;100.00;100368.00;4990916;28;20031;-86
2023/04/22 01:45:27;;;;;;;31.02;18.33;;;;;;;12.92;100.00;100372.06;4990222;28;20113;-89
2023/04/22 01:47:53;;;;;;;33.55;19.75;;;;;;;12.85;100.00;100365.81;4988389;28;20446;-89
2023/04/22 01:50:20;;;;;;;36.70;19.75;;;;;;;12.83;100.00;100366.00;4990080;28;20037;-90
2023/04/22 01:52:45;;;;;;;37.40;20.63;;;;;;;12.72;100.00;100366.44;4991742;28;20035;-89
2023/04/22 01:55:13;;;;;;;32.67;20.02;;;;;;;12.70;100.00;100352.47;4984247;28;20233;-90
2023/04/22 01:57:41;;;;;;;37.17;21.35;;;;;;;12.65;100.00;100364.66;4980105;28;20085;-89
2023/04/22 02:00:08;;;;;;;35.78;21.08;;;;;;;12.63;100.00;100356.03;4979797;28;20039;-89
2023/04/22 02:02:38;;;;;;;37.80;21.33;;;;;;;12.60;100.00;100362.53;4980548;28;20034;-88
2023/04/22 02:08:50;;;;;;;33.88;19.98;;;;;;;12.52;100.00;100359.97;4999657;28;20041;-89
2023/04/22 02:11:16;;;;;;;36.35;20.60;;;;;;;12.44;100.00;100357.34;5000296;28;20034;-90
2023/04/22 02:13:41;;;;;;;37.28;20.02;;;;;;;12.47;100.00;100359.66;4986177;28;20043;-90
2023/04/22 02:16:08;;;;;;;35.90;20.95;;;;;;;12.36;100.00;100354.78;4980302;28;20570;-89
2023/04/22 02:18:34;;;;;;;38.35;20.30;;;;;;;12.41;100.00;100357.72;4982047;28;20027;-91
2023/04/22 02:20:59;;;;;;;33.53;20.95;;;;;;;12.32;100.00;100348.16;4979614;28;20031;-89
2023/04/22 02:23:26;;;;;;;37.00;21.17;;;;;;;12.32;100.00;100370.25;4979710;28;20529;-85
2023/04/22 02:25:53;;;;;;;39.78;21.90;;;;;;;12.34;100.00;100359.44;4979902;28;20046;-92
2023/04/22 02:28:19;;;;;;;33.75;19.90;;;;;;;12.34;100.00;100362.91;4979458;28;20042;-91
2023/04/22 02:30:45;;;;;;;36.40;20.13;;;;;;;12.39;100.00;100359.72;4979372;28;20039;-91
2023/04/22 02:33:11;;;;;;;38.90;21.20;;;;;;;12.37;100.00;100361.72;4978997;28;20083;-90
2023/04/22 02:35:36;;;;;;;32.47;19.90;;;;;;;12.58;100.00;100364.56;4961530;28;20022;-91
2023/04/22 02:38:02;;;;;;;31.45;20.52;;;;;;;12.39;100.00;100365.84;4978726;28;20393;-89
2023/04/22 02:40:27;;;;;;;38.47;21.48;;;;;;;12.21;100.00;100357.34;4979079;28;20035;-92
2023/04/22 02:42:53;;;;;;;38.60;22.75;;;;;;;12.04;100.00;100354.97;4977481;28;20053;-91
2023/04/22 02:45:20;;;;;;;41.90;21.67;;;;;;;11.99;100.00;100363.50;4962139;28;20083;-88
2023/04/22 02:47:46;;;;;;;32.97;20.45;;;;;;;12.19;100.00;100355.88;4978822;28;20094;-90
2023/04/22 02:50:11;;;;;;;40.40;21.23;;;;;;;12.37;100.00;100361.72;4978315;28;20049;-92
2023/04/22 02:52:37;;;;;;;37.78;21.48;;;;;;;12.24;100.00;100361.50;4977672;28;20478;-88
2023/04/22 02:55:03;;;;;;;34.13;20.25;;;;;;;12.38;100.00;100366.88;4981383;28;20042;-91
2023/04/22 02:57:28;;;;;;;37.03;20.02;;;;;;;12.37;100.00;100359.06;4981605;28;20105;-90
2023/04/22 02:59:54;;;;;;;36.65;21.65;;;;;;;12.44;100.00;100362.66;4978524;28;20033;-90
2023/04/22 03:02:22;;;;;;;35.47;20.75;;;;;;;12.62;100.00;100365.88;4976383;28;20046;-88
2023/04/22 03:05:04;;;;;;;38.17;21.70;;;;;;;12.65;100.00;100359.34;4963718;28;20030;-90
2023/04/22 03:07:30;;;;;;;37.20;21.50;;;;;;;12.77;100.00;100361.41;4962252;28;20327;-89
2023/04/22 03:09:56;;;;;;;32.80;18.65;;;;;;;12.90;100.00;100361.59;4982581;28;20014;-85
2023/04/22 03:12:23;;;;;;;37.55;21.42;;;;;;;12.80;100.00;100358.38;5000414;28;20038;-87
2023/04/22 03:14:49;;;;;;;32.15;19.75;;;;;;;12.85;100.00;100358.69;4983563;28;20099;-86
2023/04/22 03:17:15;;;;;;;32.25;19.52;;;;;;;12.91;100.00;100355.28;4983323;28;20042;-87
2023/04/22 03:19:40;;;;;;;34.58;20.67;;;;;;;12.84;100.00;100358.84;4998670;28;20038;-88
2023/04/22 03:22:06;;;;;;;33.50;19.73;;;;;;;12.83;100.00;100355.34;4971540;28;20063;-89
2023/04/22 03:27:57;;;;;;;38.20;21.85;;;;;;;12.51;100.00;100354.81;4987173;28;20046;-88
2023/04/22 03:30:25;;;;;;;33.65;20.70;;;;;;;12.59;100.00;100360.06;4980630;28;20090;-89
2023/04/22 03:32:55;;;;;;;37.35;22.10;;;;;;;12.69;100.00;100355.34;4947964;28;20057;-91
2023/04/22 03:39:50;;;;;;;43.70;22.70;;;;;;;12.39;100.00;100357.88;4992833;28;20061;-87
2023/04/22 03:42:17;;;;;;;39.58;21.60;;;;;;;12.46;100.00;100363.34;4990899;28;20043;-88
2023/04/22 03:44:44;;;;;;;37.05;22.00;;;;;;;12.51;100.00;100358.31;4997991;28;20115;-89
2023/04/22 03:47:15;;;;;;;42.33;22.30;;;;;;;12.59;100.00;100363.56;4997983;28;20041;-89
2023/04/22 03:49:46;;;;;;;35.97;20.80;;;;;;;12.58;100.00;100367.22;4996305;28;20062;-88
2023/04/22 03:52:12;;;;;;;39.60;22.05;;;;;;;12.43;100.00;100366.31;4978863;28;20035;-90
2023/04/22 03:54:44;;;;;;;35.67;21.40;;;;;;;12.58;100.00;100364.56;4976748;28;20086;-92
2023/04/22 03:57:09;;;;;;;36.17;21.70;;;;;;;12.63;100.00;100370.16;4975499;28;20070;-90
2023/04/22 03:59:35;;;;;;;37.78;21.52;;;;;;;12.53;100.00;100369.56;4976054;28;20113;-88
2023/04/22 04:02:01;;;;;;;40.80;22.73;;;;;;;12.29;100.00;100370.59;4975652;28;20039;-90
2023/04/22 04:04:29;;;;;;;40.25;22.13;;;;;;;12.10;100.00;100370.19;4975753;28;20094;-91
2023/04/22 04:06:58;;;;;;;48.90;24.90;;;;;;;11.91;100.00;100369.66;4975378;28;20045;-90
2023/04/22 04:09:25;;;;;;;43.97;22.10;;;;;;;11.95;100.00;100377.28;4975045;28;20058;-90
2023/04/22 04:11:51;;;;;;;44.47;25.92;;;;;;;11.87;100.00;100381.63;4958276;28;20046;-89
2023/04/22 04:14:17;;;;;;;43.53;24.25;;;;;;;11.86;100.00;100374.66;4977518;28;20057;-92
2023/04/22 04:16:50;;;;;;;43.33;23.77;;;;;;;11.91;100.00;100382.94;4977822;28;20027;-92
2023/04/22 04:19:30;;;;;;;38.97;23.70;;;;;;;12.00;100.00;100374.94;4979546;28;20043;-92
2023/04/22 04:22:03;;;;;;;46.13;24.33;;;;;;;12.16;100.00;100380.16;4968857;28;20042;-92
2023/04/22 04:24:35;;;;;;;39.42;23.27;;;;;;;12.22;100.00;100382.09;4971208;28;20034;-92
2023/04/22 04:27:11;;;;;;;39.38;24.25;;;;;;;12.43;100.00;100371.63;4983103;28;20042;-92
2023/04/22 04:29:57;;;;;;;40.65;22.58;;;;;;;12.55;100.00;100370.25;4981636;28;20057;-92
2023/04/22 04:32:47;;;;;;;43.35;23.95;;;;;;;12.62;100.00;100378.31;4976832;28;20050;-91
2023/04/22 04:35:17;;;;;;;40.00;23.10;;;;;;;12.32;100.00;100369.41;4946134;29;20035;-88
2023/04/22 04:37:47;;;;;;;38.30;22.40;;;;;;;12.23;100.00;100365.97;4957755;29;20043;-90
2023/04/22 04:40:14;;;;;;;40.55;23.23;;;;;;;12.01;100.00;100371.25;4979184;28;20118;-91
2023/04/22 04:42:56;;;;;;;44.55;23.70;;;;;;;11.68;100.00;100375.88;4986551;28;20031;-92
2023/04/22 04:45:30;;;;;;;43.22;24.65;;;;;;;11.65;100.00;100374.41;4982705;28;20481;-91
2023/04/22 04:47:57;;;;;;;45.80;25.27;;;;;;;11.67;100.00;100380.34;4966549;28;20099;-91
2023/04/22 04:50:27;;;;;;;47.30;24.52;;;;;;;11.71;100.00;100378.22;4977864;28;20128;-92
2023/04/22 04:52:57;;;;;;;44.15;24.70;;;;;;;11.84;100.00;100376.66;4976505;28;20051;-91
2023/04/22 04:55:29;;;;;;;40.47;23.67;;;;;;;11.99;100.00;100382.09;4962921;28;20070;-91
2023/04/22 04:57:57;;;;;;;43.15;23.30;;;;;;;11.93;100.00;100380.13;4974911;28;20151;-93
2023/04/22 05:00:22;;;;;;;40.30;23.33;;;;;;;11.83;100.00;100385.63;4975495;28;20042;-90
2023/04/22 05:02:48;;;;;;;44.35;23.98;;;;;;;11.56;100.00;100378.09;4976582;28;20058;-92
2023/04/22 05:05:13;;;;;;;44.17;24.52;;;;;;;11.47;100.00;100381.75;4976329;28;20083;-90
2023/04/22 05:07:41;;;;;;;42.47;23.33;;;;;;;11.50;100.00;100383.28;4974960;28;20035;-92
2023/04/22 05:10:08;;;;;;;49.05;25.90;;;;;;;11.68;100.00;100381.19;4975694;28;20031;-90
2023/04/22 05:12:35;;;;;;;46.28;26.17;;;;;;;11.71;100.00;100387.03;4961603;28;20114;-91
2023/04/22 05:15:02;;;;;;;45.03;24.35;;;;;;;11.43;100.00;100383.13;4993582;28;20018;-88
2023/04/22 05:17:29;;;;;;;43.78;24.45;;;;;;;11.40;100.00;100380.81;4996243;28;20031;-91
2023/04/22 05:19:55;;;;;;;43.83;25.77;;;;;;;11.41;100.00;100387.75;4986840;28;20054;-89
2023/04/22 05:22:22;;;;;;;45.17;25.10;;;;;;;11.39;100.00;100387.13;4975463;28;20069;-88
2023/04/22 05:24:48;;;;;;;44.50;25.27;;;;;;;11.49;100.00;100382.44;4976480;28;20117;-90
2023/04/22 05:27:13;;;;;;;48.30;26.08;;;;;;;11.85;100.00;100388.94;4977714;28;20165;-89
2023/04/22 05:29:39;;;;;;;45.78;24.65;;;;;;;12.17;100.00;100395.06;4977157;28;20043;-90
2023/04/22 05:32:06;;;;;;;47.13;24.67;;;;;;;12.31;100.00;100395.16;4978459;28;20460;-92
2023/04/22 05:34:34;;;;;;;40.33;23.67;;;;;;;12.40;100.00;100398.56;4959175;28;20043;-91
2023/04/22 05:37:02;;;;;;;41.35;23.70;;;;;;;12.37;100.00;100393.63;4958042;28;20039;-90
2023/04/22 05:39:28;;;;;;;40.35;23.15;;;;;;;12.43;100.00;100398.22;4957087;29;20090;-91
2023/04/22 05:41:55;;;;;;;43.58;24.40;;;;;;;12.62;100.00;100413.72;4961527;29;20031;-86
2023/04/22 05:44:21;;;;;;;47.72;24.35;;;;;;;12.91;100.00;100411.16;4940378;29;20031;-87
2023/04/22 05:46:47;;;;;;;41.60;23.30;;;;;;;13.08;100.00;100408.34;4958804;28;20059;-88
2023/04/22 05:49:13;;;;;;;42.95;24.35;;;;;;;13.07;100.00;100412.00;4960068;28;20090;-85
2023/04/22 05:51:58;;;;;;;42.60;23.58;;;;;;;13.35;100.00;100410.44;4983511;28;20513;-90
2023/04/22 05:54:33;;;;;;;37.83;22.90;;;;;;;14.27;100.00;100417.75;4966799;28;20540;-93
2023/04/22 05:57:01;;;;;;;43.83;24.00;;;;;;;14.93;100.00;100431.75;4984584;28;20121;-92
2023/04/22 05:59:38;;;;;;;40.13;22.00;;;;;;;14.55;100.00;100431.19;4983408;28;20039;-93
2023/04/22 06:02:04;;;;;;;34.03;20.92;;;;;;;14.69;100.00;100426.81;4962385;28;20495;-90
2023/04/22 06:05:09;;;;;;;38.85;21.85;;;;;;;15.12;100.00;100433.75;4983642;28;20035;-86
2023/04/22 06:07:34;;;;;;;37.88;21.88;;;;;;;14.79;100.00;100438.00;4979178;28;20149;-88
2023/04/22 06:10:03;;;;;;;36.42;20.98;;;;;;;15.33;100.00;100435.56;4977278;28;20070;-92
2023/04/22 06:12:29;;;;;;;36.90;21.80;;;;;;;15.63;100.00;100429.03;4968043;28;20023;-91
2023/04/22 06:14:54;;;;;;;40.00;21.85;;;;;;;16.13;100.00;100427.00;4981813;28;20034;-92
2023/04/22 06:17:20;;;;;;;39.83;21.85;;;;;;;16.49;100.00;100435.53;4979607;28;20034;-89
2023/04/22 06:19:50;;;;;;;44.40;21.33;;;;;;;16.55;100.00;100434.75;4977543;28;20506;-89
2023/04/22 06:22:16;;;;;;;32.33;20.23;;;;;;;17.03;100.00;100430.88;4972994;28;20042;-87
2023/04/22 06:24:41;;;;;;;31.48;18.88;;;;;;;16.84;100.00;100437.03;4973845;28;20034;-88
2023/04/22 06:27:09;;;;;;;43.25;21.15;;;;;;;16.91;100.00;100437.88;4973926;28;20062;-90
2023/04/22 06:29:36;;;;;;;31.98;19.40;;;;;;;17.11;100.00;100435.19;4978635;28;20031;-89
2023/04/22 06:32:02;;;;;;;33.08;18.20;;;;;;;17.87;100.00;100439.00;4978957;28;20109;-89
2023/04/22 06:34:31;;;;;;;33.40;19.73;;;;;;;17.37;100.00;100447.75;4977441;28;20034;-89
2023/04/22 06:36:57;;;;;;;37.10;18.33;;;;;;;17.27;100.00;100433.94;4981825;28;20045;-89
2023/04/22 06:39:23;;;;;;;29.10;17.15;;;;;;;17.51;100.00;100438.66;4982736;28;20038;-90
2023/04/22 06:42:07;;;;;;;26.80;16.58;;;;;;;18.79;100.00;100448.50;4980726;28;20054;-89
2023/04/22 06:45:07;;;;;;;28.20;17.85;;;;;;;17.84;100.00;100450.16;4977826;28;20093;-91
2023/04/22 06:48:08;;;;;;;31.27;19.27;;;;;;;17.95;100.00;100449.53;4918032;29;20148;-87
2023/04/22 06:50:51;;;;;;;31.17;17.98;;;;;;;18.53;100.00;100450.28;4970444;28;20054;-90
2023/04/22 06:53:16;;;;;;;31.17;17.63;;;;;;;18.82;100.00;100454.25;4976165;28;20035;-88
2023/04/22 06:55:42;;;;;;;27.23;16.40;;;;;;;19.02;100.00;100465.66;4976426;28;20430;-89
2023/04/22 06:58:08;;;;;;;25.48;16.67;;;;;;;18.47;100.00;100458.34;4976066;28;20031;-90
2023/04/22 07:00:33;;;;;;;27.13;16.67;;;;;;;19.35;100.00;100467.28;4978268;28;20041;-90
2023/04/22 07:02:59;;;;;;;27.30;16.40;;;;;;;18.88;100.00;100463.31;4962306;28;20072;-89
2023/04/22 07:05:25;;;;;;;27.65;15.65;;;;;;;19.81;100.00;100470.34;4977307;28;20446;-89
2023/04/22 07:07:51;;;;;;;24.65;16.38;;;;;;;20.39;100.00;100461.81;4971078;28;20026;-87
2023/04/22 07:10:19;;;;;;;25.05;16.02;;;;;;;20.36;100.00;100462.25;4979630;28;20482;-89
2023/04/22 07:13:05;;;;;;;27.90;16.25;;;;;;;20.72;100.00;100455.97;4973473;28;20035;-88
2023/04/22 07:15:30;;;;;;;25.33;15.85;;;;;;;20.34;100.00;100442.84;4963181;28;20042;-89
2023/04/22 07:17:56;;;;;;;24.55;15.88;;;;;;;19.71;100.00;100453.91;4966266;28;20043;-89
2023/04/22 07:20:21;;;;;;;25.95;16.77;;;;;;;19.99;100.00;100456.91;4969108;28;20113;-89
2023/04/22 07:22:51;;;;;;;21.52;15.00;;;;;;;20.27;100.00;100452.88;4973043;28;20042;-88
2023/04/22 07:25:17;;;;;;;27.73;16.17;;;;;;;20.73;100.00;100453.03;4972903;28;20027;-89
2023/04/22 07:27:42;;;;;;;29.63;16.83;;;;;;;21.42;99.29;100459.63;4977343;28;20038;-86
2023/04/22 07:30:10;;;;;;;25.15;15.57;;;;;;;21.80;95.07;100469.94;4967178;28;20027;-88
2023/04/22 07:32:36;;;;;;;25.50;15.18;;;;;;;23.29;86.75;100475.00;4972070;28;20054;-90
2023/04/22 07:35:01;;;;;;;20.63;14.30;;;;;;;23.51;82.05;100473.19;4977531;28;20061;-89
2023/04/22 07:37:27;;;;;;;24.88;14.80;;;;;;;22.47;87.52;100460.28;4976113;28;20475;-89
2023/04/22 07:39:52;;;;;;;24.08;15.00;;;;;;;22.15;90.12;100468.84;4979303;28;20089;-90
2023/04/22 07:42:19;;;;;;;22.23;14.15;;;;;;;22.00;89.37;100468.53;4971007;28;20467;-89
2023/04/22 07:44:44;;;;;;;23.40;14.35;;;;;;;22.42;88.33;100458.31;4975784;28;20394;-89
2023/04/22 07:47:10;;;;;;;26.40;15.48;;;;;;;21.77;88.95;100460.44;4964275;28;20096;-87
2023/04/22 07:49:35;;;;;;;22.50;13.88;;;;;;;21.80;90.38;100464.53;4978272;28;20059;-88
2023/04/22 07:52:01;;;;;;;24.38;13.68;;;;;;;21.98;88.13;100461.72;4978087;28;20390;-89
2023/04/22 07:54:30;;;;;;;23.02;14.25;;;;;;;22.46;83.61;100464.03;4978341;28;20093;-89
2023/04/22 07:56:57;;;;;;;21.92;15.23;;;;;;;22.58;81.54;100462.94;4959760;28;20050;-89
2023/04/22 07:59:23;;;;;;;23.65;15.27;;;;;;;22.72;77.11;100462.66;4951985;28;20042;-87
2023/04/22 08:01:48;;;;;;;21.95;14.23;;;;;;;22.24;80.09;100465.78;4973799;28;20085;-90
2023/04/22 08:04:14;;;;;;;21.85;14.90;;;;;;;22.01;79.91;100455.84;4978100;28;20041;-90
2023/04/22 08:06:39;;;;;;;23.20;14.68;;;;;;;21.67;83.03;100462.91;4976203;28;20481;-92
2023/04/22 08:09:05;;;;;;;27.92;14.57;;;;;;;21.61;82.01;100467.34;4975312;28;20115;-90
2023/04/22 08:11:30;;;;;;;22.77;14.00;;;;;;;21.51;80.87;100466.31;4976369;28;20460;-90
2023/04/22 08:13:56;;;;;;;24.05;13.63;;;;;;;21.71;78.66;100464.06;4976944;28;20039;-90
2023/04/22 08:16:21;;;;;;;19.92;13.10;;;;;;;21.85;77.59;100451.97;4977447;28;20490;-90
2023/04/22 08:18:47;;;;;;;17.90;12.25;;;;;;;22.61;75.39;100453.50;4983349;28;20130;-89
2023/04/22 08:21:13;;;;;;;17.30;12.55;;;;;;;23.00;68.93;100470.75;4990450;28;20034;-84
2023/04/22 08:23:39;;;;;;;19.45;12.43;;;;;;;23.37;68.18;100476.44;4989655;28;20035;-90
2023/04/22 08:26:08;;;;;;;20.52;14.05;;;;;;;22.69;71.71;100468.53;4984984;28;20025;-85
2023/04/22 08:28:34;;;;;;;19.73;13.50;;;;;;;22.90;70.23;100470.56;4990950;28;20035;-85
2023/04/22 08:30:59;;;;;;;22.20;14.75;;;;;;;;;;4996073;28;20047;-86
2023/04/22 08:33:25;;;;;;;22.92;15.25;;;;;;;23.32;69.65;100462.88;4993061;28;20035;-88
2023/04/22 08:35:51;;;;;;;28.27;14.90;;;;;;;23.01;68.58;100456.97;4965471;28;20410;-83
2023/04/22 08:38:18;;;;;;;21.05;14.20;;;;;;;22.83;71.61;100449.09;4985142;28;20031;-88
2023/04/22 08:40:45;;;;;;;22.13;14.32;;;;;;;23.13;70.79;100448.78;4986804;28;20038;-94
2023/04/22 08:43:11;;;;;;;28.23;16.30;;;;;;;23.43;70.04;100453.88;4984029;28;20486;-88
2023/04/22 08:45:40;;;;;;;21.77;14.88;;;;;;;23.44;68.76;100450.09;4961011;28;20039;-85
2023/04/22 08:48:12;;;;;;;22.58;14.98;;;;;;;23.90;67.83;100454.25;4978438;28;20027;-87
2023/04/22 08:50:40;;;;;;;20.85;15.10;;;;;;;24.47;62.63;100454.69;4976113;28;20043;-87
2023/04/22 08:53:06;;;;;;;21.55;14.20;;;;;;;24.02;63.93;100450.38;4963949;28;20031;-87
2023/04/22 08:55:33;;;;;;;24.20;14.80;;;;;;;23.93;65.97;100441.03;4962349;28;20039;-88
2023/04/22 08:58:02;;;;;;;23.27;16.33;;;;;;;23.26;67.10;100432.22;4966059;28;20039;-85
2023/04/22 09:00:31;;;;;;;23.02;15.98;;;;;;;22.68;69.57;100427.19;4967130;28;20043;-89
2023/04/22 09:03:01;;;;;;;22.88;13.55;;;;;;;22.48;68.24;100440.31;4967678;28;20160;-88
2023/04/22 09:05:31;;;;;;;23.63;13.40;;;;;;;22.69;65.95;100436.94;4981173;28;20049;-87
2023/04/22 09:07:57;;;;;;;19.15;12.52;;;;;;;23.31;64.82;100445.81;4981672;28;20548;-88
2023/04/22 09:10:23;;;;;;;21.85;12.80;;;;;;;23.38;62.54;100440.22;4977716;28;20039;-89
2023/04/22 09:12:49;;;;;;;22.83;13.23;;;;;;;23.10;62.27;100438.47;4975868;28;20038;-90
2023/04/22 09:15:15;;;;;;;23.38;12.25;;;;;;;23.16;63.46;100443.72;4976058;28;20039;-88
2023/04/22 09:17:42;;;;;;;24.17;12.38;;;;;;;23.15;65.82;100442.06;4975231;28;20034;-89
2023/04/22 09:20:08;;;;;;;20.98;13.07;;;;;;;22.81;67.06;100440.41;4975202;28;20486;-89
2023/04/22 09:22:47;;;;;;;20.35;12.95;;;;;;;22.98;65.24;100435.00;4976854;28;20445;-86
2023/04/22 09:25:21;;;;;;;21.02;13.95;;;;;;;22.70;65.46;100433.19;4974326;28;20089;-87
2023/04/22 09:27:55;;;;;;;25.38;15.52;;;;;;;22.67;66.39;100427.47;4974362;28;20058;-87
2023/04/22 09:30:28;;;;;;;22.23;14.25;;;;;;;22.57;67.87;100425.38;4975984;28;20386;-88
2023/04/22 09:32:55;;;;;;;21.33;15.52;;;;;;;22.46;71.39;100426.22;4976534;28;20035;-87
2023/04/22 09:35:43;;;;;;;21.63;14.93;;;;;;;22.44;68.32;100422.94;4978281;28;20433;-87
2023/04/22 09:38:11;;;;;;;23.60;15.05;;;;;;;22.54;67.78;100423.94;4966841;28;20395;-86
2023/04/22 09:40:45;;;;;;;24.23;14.05;;;;;;;22.76;68.52;100416.00;4971936;28;20140;-87
2023/04/22 09:43:11;;;;;;;22.58;14.73;;;;;;;23.08;66.19;100425.19;4962956;29;20062;-89
2023/04/22 09:45:38;;;;;;;21.95;14.32;;;;;;;22.91;64.86;100416.25;4958061;28;20031;-85
2023/04/22 09:48:08;;;;;;;21.70;13.13;;;;;;;23.57;62.86;100423.50;4957916;28;20121;-88
2023/04/22 09:50:35;;;;;;;22.60;15.07;;;;;;;23.15;63.92;100425.00;4964891;28;20046;-86
2023/04/22 09:53:03;;;;;;;21.83;14.65;;;;;;;22.70;66.67;100411.56;4975605;28;20221;-85
2023/04/22 09:55:32;;;;;;;23.10;15.07;;;;;;;22.68;67.21;100413.69;4975501;28;20065;-90
2023/04/22 09:57:57;;;;;;;21.42;13.40;;;;;;;23.16;67.15;100411.25;4975569;28;20192;-89
2023/04/22 10:00:28;;;;;;;26.58;15.82;;;;;;;24.40;62.12;100397.19;4974434;28;20133;-85
2023/04/22 10:02:54;;;;;;;21.63;14.88;;;;;;;24.48;61.68;100402.16;4977927;28;20120;-87
2023/04/22 10:05:20;;;;;;;21.75;14.68;;;;;;;23.63;62.92;100413.59;4977515;28;20122;-87
2023/04/22 10:07:46;;;;;;;21.00;15.13;;;;;;;23.54;63.81;100399.66;4959539;28;20031;-89
2023/04/22 10:10:12;;;;;;;24.38;15.88;;;;;;;23.47;62.41;100404.41;4956938;28;20058;-86
2023/04/22 10:12:38;;;;;;;22.80;14.95;;;;;;;23.28;63.53;100399.50;4942278;29;20491;-88
2023/04/22 10:15:05;;;;;;;21.55;14.80;;;;;;;22.86;64.06;100405.38;4958441;29;20098;-90
2023/04/22 10:17:34;;;;;;;26.75;16.33;;;;;;;22.13;66.07;100398.09;4958093;28;20487;-86
2023/04/22 10:20:04;;;;;;;24.95;15.98;;;;;;;22.33;66.21;100394.13;4958700;29;20525;-87
2023/04/22 10:22:34;;;;;;;28.00;17.10;;;;;;;22.39;65.98;100385.88;4959688;28;20039;-87
2023/04/22 10:25:00;;;;;;;29.67;15.75;;;;;;;22.88;64.41;100395.13;4965120;28;20039;-87
2023/04/22 10:27:26;;;;;;;25.55;16.58;;;;;;;23.18;63.95;100392.06;4969999;28;20110;-89
2023/04/22 10:29:51;;;;;;;26.10;15.70;;;;;;;23.91;60.52;100386.34;4967678;28;20042;-88
2023/04/22 10:32:16;;;;;;;24.95;16.52;;;;;;;23.84;59.49;100387.59;4962811;28;20091;-86
2023/04/22 10:34:48;;;;;;;24.23;16.00;;;;;;;24.24;60.02;100374.53;4958969;28;20178;-90
2023/04/22 10:37:18;;;;;;;20.83;15.27;;;;;;;24.91;56.59;100374.91;4968232;28;20035;-86
2023/04/22 10:40:08;;;;;;;24.35;14.75;;;;;;;25.26;53.51;100378.94;4978828;28;20039;-88
2023/04/22 10:42:34;;;;;;;22.83;14.70;;;;;;;25.45;53.55;100382.88;4978881;28;20078;-89
2023/04/22 10:45:04;;;;;;;26.50;16.20;;;;;;;25.25;53.24;100391.72;4980896;28;20031;-89
2023/04/22 10:47:31;;;;;;;24.15;16.27;;;;;;;25.30;53.24;100388.19;4981600;28;20391;-86
2023/04/22 10:50:09;;;;;;;23.13;16.25;;;;;;;25.83;52.46;100392.56;4981054;28;20045;-88
2023/04/22 10:52:37;;;;;;;22.60;15.50;;;;;;;26.12;52.93;100383.72;4969007;28;20042;-91
2023/04/22 10:55:03;;;;;;;23.40;15.73;;;;;;;26.64;50.12;100385.47;4972654;29;20040;-86
2023/04/22 10:57:39;;;;;;;25.48;16.33;;;;;;;26.49;49.14;100380.81;4975914;28;20102;-85
2023/04/22 11:00:23;;;;;;;28.30;17.05;;;;;;;24.95;54.35;100386.88;4976667;28;20043;-86
2023/04/22 11:03:04;;;;;;;24.88;16.67;;;;;;;23.87;58.68;100371.66;4976288;28;20047;-86
2023/04/22 11:05:31;;;;;;;23.42;17.05;;;;;;;24.09;57.81;100368.94;4973699;29;20134;-86
2023/04/22 11:08:03;;;;;;;26.73;16.05;;;;;;;24.20;57.51;100365.28;4966346;29;20039;-89
2023/04/22 11:10:43;;;;;;;26.37;17.83;;;;;;;23.82;58.57;100365.38;4964542;29;20050;-86
2023/04/22 11:13:32;;;;;;;27.23;15.93;;;;;;;23.94;57.99;100357.94;4963343;28;20050;-86
2023/04/22 11:15:59;;;;;;;24.90;16.00;;;;;;;24.13;57.24;100353.84;4964151;29;20032;-88
2023/04/22 11:18:26;;;;;;;23.77;16.10;;;;;;;23.48;59.13;100353.84;4962086;29;20034;-89
2023/04/22 11:20:53;;;;;;;27.30;15.48;;;;;;;23.00;63.41;100365.31;4965249;28;20454;-85